createdAt,value
2023-02-22T00:01:35.872Z,101311.06
2023-02-22T00:04:05.724Z,101310.91
2023-02-22T00:06:33.379Z,101316.91
2023-02-22T00:09:02.330Z,101311.72
2023-02-22T00:11:31.653Z,101308.47
2023-02-22T00:13:58.605Z,101305.06
2023-02-22T00:16:26.533Z,101300.84
2023-02-22T00:18:54.415Z,101291.47
2023-02-22T00:21:21.851Z,101282.88
2023-02-22T00:23:48.838Z,101282.03
2023-02-22T00:26:19.310Z,101286.41
2023-02-22T00:28:52.946Z,101295.16
2023-02-22T00:31:20.919Z,101285.59
2023-02-22T00:33:47.945Z,101283.00
2023-02-22T00:36:14.695Z,101283.81
2023-02-22T00:38:42.105Z,101277.81
2023-02-22T00:41:09.152Z,101285.59
2023-02-22T00:43:36.033Z,101276.88
2023-02-22T00:46:02.948Z,101277.03
2023-02-22T00:48:29.642Z,101274.44
2023-02-22T00:50:56.279Z,101275.38
2023-02-22T00:53:25.224Z,101265.03
2023-02-22T00:55:52.608Z,101266.13
2023-02-22T00:58:19.780Z,101258.53
2023-02-22T01:00:47.143Z,101252.69
2023-02-22T01:03:17.617Z,101254.44
2023-02-22T01:05:46.642Z,101245.88
2023-02-22T01:08:15.770Z,101246.00
2023-02-22T01:10:44.024Z,101245.88
2023-02-22T01:13:12.835Z,101247.63
2023-02-22T01:15:42.048Z,101241.00
2023-02-22T01:18:09.079Z,101242.75
2023-02-22T01:20:35.943Z,101246.28
2023-02-22T01:23:06.844Z,101242.09
2023-02-22T01:25:34.570Z,101240.47
2023-02-22T01:28:02.383Z,101238.16
2023-02-22T01:30:33.022Z,101244.16
2023-02-22T01:33:01.776Z,101244.97
2023-02-22T01:35:33.925Z,101252.88
2023-02-22T01:38:00.857Z,101245.91
2023-02-22T01:40:35.075Z,101245.13
2023-02-22T01:43:05.311Z,101240.91
2023-02-22T01:45:34.897Z,101235.88
2023-02-22T01:48:09.358Z,101241.84
2023-02-22T01:50:45.078Z,101240.22
2023-02-22T01:53:16.343Z,101236.00
2023-02-22T01:55:44.685Z,101237.94
2023-02-22T01:58:12.682Z,101232.75
2023-02-22T02:00:40.055Z,101229.78
2023-02-22T02:03:11.922Z,101236.88
2023-02-22T02:05:39.233Z,101235.25
2023-02-22T02:08:21.731Z,101234.44
2023-02-22T02:10:49.302Z,101226.69
2023-02-22T02:13:16.263Z,101223.41
2023-02-22T02:15:43.102Z,101216.59
2023-02-22T02:18:12.790Z,101210.63
2023-02-22T02:20:53.773Z,101206.41
2023-02-22T02:23:41.049Z,101216.75
2023-02-22T02:26:23.021Z,101210.91
2023-02-22T02:29:33.241Z,101204.25
2023-02-22T02:32:08.794Z,101209.72
2023-02-22T02:34:58.807Z,101208.09
2023-02-22T02:37:48.532Z,101203.22
2023-02-22T02:40:42.196Z,101200.78
2023-02-22T02:43:31.407Z,101197.66
2023-02-22T02:46:45.701Z,101188.28
2023-02-22T02:49:19.269Z,101188.41
2023-02-22T02:51:52.348Z,101187.59
2023-02-22T02:54:21.135Z,101180.63
2023-02-22T02:56:48.254Z,101182.41
2023-02-22T02:59:27.799Z,101180.81
2023-02-22T03:02:34.177Z,101178.50
2023-02-22T03:05:03.649Z,101177.00
2023-02-22T03:07:45.115Z,101168.41
2023-02-22T03:10:50.472Z,101172.81
2023-02-22T03:13:17.013Z,101160.00
2023-02-22T03:15:52.799Z,101153.88
2023-02-22T03:18:32.325Z,101149.53
2023-02-22T03:21:27.475Z,101152.25
2023-02-22T03:24:06.560Z,101148.03
2023-02-22T03:26:56.976Z,101154.03
2023-02-22T03:29:26.348Z,101142.88
2023-02-22T03:32:01.826Z,101139.63
2023-02-22T03:34:53.164Z,101144.91
2023-02-22T03:37:25.757Z,101134.72
2023-02-22T03:39:54.889Z,101139.09
2023-02-22T03:42:31.401Z,101135.81
2023-02-22T03:45:05.150Z,101133.41
2023-02-22T03:47:45.886Z,101133.00
2023-02-22T03:50:22.267Z,101129.53
2023-02-22T03:52:50.031Z,101122.31
2023-02-22T03:55:17.882Z,101129.69
2023-02-22T03:57:57.542Z,101126.72
2023-02-22T04:00:33.838Z,101127.13
2023-02-22T04:03:00.849Z,101124.16
2023-02-22T04:05:27.667Z,101121.84
2023-02-22T04:07:56.050Z,101114.25
2023-02-22T04:10:41.396Z,101112.78
2023-02-22T04:13:08.224Z,101110.47
2023-02-22T04:15:34.904Z,101119.19
2023-02-22T04:18:01.671Z,101118.47
2023-02-22T04:20:28.434Z,101115.91
2023-02-22T04:22:57.307Z,101115.22
2023-02-22T04:25:24.630Z,101112.78
2023-02-22T04:27:51.698Z,101113.91
2023-02-22T04:30:20.379Z,101106.97
2023-02-22T04:32:48.223Z,101109.53
2023-02-22T04:35:15.273Z,101111.31
2023-02-22T04:37:42.060Z,101107.91
2023-02-22T04:40:09.349Z,101105.31
2023-02-22T04:42:36.919Z,101102.91
2023-02-22T04:45:06.040Z,101102.91
2023-02-22T04:47:32.783Z,101105.31
2023-02-22T04:50:00.459Z,101103.72
2023-02-22T04:52:27.867Z,101104.38
2023-02-22T04:54:54.519Z,101102.63
2023-02-22T04:57:22.213Z,101105.19
2023-02-22T04:59:48.849Z,101106.81
2023-02-22T05:02:17.535Z,101099.72
2023-02-22T05:04:45.121Z,101102.97
2023-02-22T05:07:12.288Z,101097.97
2023-02-22T05:09:39.090Z,101098.78
2023-02-22T05:12:06.167Z,101087.47
2023-02-22T05:14:33.416Z,101083.13
2023-02-22T05:17:00.791Z,101085.06
2023-02-22T05:19:27.600Z,101086.97
2023-02-22T05:21:54.271Z,101091.97
2023-02-22T05:24:21.056Z,101091.03
2023-02-22T05:26:47.755Z,101087.47
2023-02-22T05:29:14.578Z,101090.75
2023-02-22T05:31:42.066Z,101086.38
2023-02-22T05:34:08.976Z,101086.25
2023-02-22T05:36:35.612Z,101082.03
2023-02-22T05:39:02.403Z,101081.22
2023-02-22T05:41:29.306Z,101080.44
2023-02-22T05:43:55.928Z,101071.84
2023-02-22T05:46:23.897Z,101070.09
2023-02-22T05:48:53.430Z,101069.13
2023-02-22T05:51:20.264Z,101063.00
2023-02-22T05:53:49.542Z,101058.50
2023-02-22T05:56:21.933Z,101061.09
2023-02-22T05:58:48.847Z,101056.59
2023-02-22T06:01:15.907Z,101060.81
2023-02-22T06:03:46.216Z,101055.66
2023-02-22T06:06:12.850Z,101051.44
2023-02-22T06:08:40.698Z,101050.47
2023-02-22T06:11:08.986Z,101056.31
2023-02-22T06:13:36.810Z,101051.94
2023-02-22T06:16:05.293Z,101050.19
2023-02-22T06:18:32.623Z,101049.22
2023-02-22T06:21:00.311Z,101050.84
2023-02-22T06:23:27.186Z,101056.81
2023-02-22T06:25:56.147Z,101053.31
2023-02-22T06:28:23.888Z,101052.31
2023-02-22T06:30:50.661Z,101041.88
2023-02-22T06:33:17.434Z,101049.75
2023-02-22T06:35:45.297Z,101045.66
2023-02-22T06:38:12.074Z,101045.81
2023-02-22T06:40:38.854Z,101045.16
2023-02-22T06:43:05.569Z,101042.72
2023-02-22T06:45:32.324Z,101040.94
2023-02-22T06:47:58.966Z,101044.34
2023-02-22T06:50:30.623Z,101037.41
2023-02-22T06:52:58.643Z,101040.81
2023-02-22T06:55:30.866Z,101044.34
2023-02-22T06:57:57.666Z,101047.91
2023-02-22T07:00:26.196Z,101048.84
2023-02-22T07:02:54.105Z,101048.69
2023-02-22T07:05:22.421Z,101046.25
2023-02-22T07:07:51.040Z,101046.25
2023-02-22T07:10:22.961Z,101043.69
2023-02-22T07:12:49.764Z,101041.09
2023-02-22T07:15:18.289Z,101037.69
2023-02-22T07:17:45.321Z,101034.28
2023-02-22T07:20:11.966Z,101035.09
2023-02-22T07:22:40.022Z,101035.25
2023-02-22T07:25:09.989Z,101031.84
2023-02-22T07:27:38.446Z,101032.97
2023-02-22T07:30:16.141Z,101026.03
2023-02-22T07:32:44.059Z,101028.59
2023-02-22T07:35:18.443Z,101033.09
2023-02-22T07:37:46.776Z,101026.97
2023-02-22T07:40:13.618Z,101030.25
2023-02-22T07:43:02.643Z,101027.34
2023-02-22T07:45:32.208Z,101026.25
2023-02-22T07:48:00.385Z,101035.66
2023-02-22T07:50:30.833Z,101042.72
2023-02-22T07:52:59.683Z,101034.44
2023-02-22T07:55:28.782Z,101039.44
2023-02-22T07:57:59.448Z,101041.09
2023-02-22T08:00:32.054Z,101037.69
2023-02-22T08:03:02.938Z,101038.34
2023-02-22T08:05:30.729Z,101028.84
2023-02-22T08:07:58.185Z,101028.03
2023-02-22T08:10:26.709Z,101026.91
2023-02-22T08:12:54.523Z,101025.66
2023-02-22T08:15:30.668Z,101030.72
2023-02-22T08:17:58.970Z,101028.94
2023-02-22T08:20:26.385Z,101022.81
2023-02-22T08:22:54.166Z,101019.28
2023-02-22T08:25:25.331Z,101010.41
2023-02-22T08:27:52.379Z,101004.28
2023-02-22T08:30:22.103Z,100999.69
2023-02-22T08:32:50.119Z,101000.19
2023-02-22T08:35:18.934Z,101007.78
2023-02-22T08:37:49.066Z,101008.47
2023-02-22T08:40:19.575Z,101004.09
2023-02-22T08:42:46.246Z,100994.72
2023-02-22T08:45:14.054Z,101004.91
2023-02-22T08:47:41.645Z,101002.19
2023-02-22T08:50:09.274Z,101005.44
2023-02-22T08:52:35.986Z,101009.63
2023-02-22T08:55:02.739Z,101003.66
2023-02-22T08:57:29.430Z,101006.22
2023-02-22T08:59:57.125Z,101010.19
2023-02-22T09:02:25.078Z,101013.53
2023-02-22T09:04:51.988Z,101016.28
2023-02-22T09:07:19.720Z,101014.69
2023-02-22T09:09:46.356Z,101020.53
2023-02-22T09:12:13.467Z,101017.63
2023-02-22T09:14:40.175Z,101015.84
2023-02-22T09:17:06.832Z,101011.50
2023-02-22T09:19:33.488Z,101016.38
2023-02-22T09:22:01.354Z,101019.63
2023-02-22T09:24:28.352Z,101016.59
2023-02-22T09:26:55.150Z,101013.88
2023-02-22T09:29:23.353Z,101010.31
2023-02-22T09:31:51.945Z,100998.88
2023-02-22T09:34:20.289Z,101001.97
2023-02-22T09:36:47.795Z,101002.91
2023-02-22T09:39:16.975Z,101001.97
2023-02-22T09:41:50.105Z,100999.53
2023-02-22T09:44:22.603Z,101003.72
2023-02-22T09:46:51.094Z,101008.41
2023-02-22T09:49:29.880Z,100996.78
2023-02-22T09:52:07.526Z,100998.28
2023-02-22T09:54:34.439Z,100988.31
2023-02-22T09:57:06.136Z,100986.22
2023-02-22T09:59:48.639Z,100975.56
2023-02-22T10:02:35.230Z,100974.97
2023-02-22T10:05:18.006Z,100976.00
2023-02-22T10:07:54.350Z,100968.13
2023-02-22T10:10:24.967Z,100967.53
2023-02-22T10:13:10.029Z,100973.88
2023-02-22T10:15:42.714Z,100974.69
2023-02-22T10:18:48.144Z,100973.78
2023-02-22T10:21:17.981Z,100982.09
2023-02-22T10:23:54.818Z,100971.47
2023-02-22T10:26:26.999Z,100973.47
2023-02-22T10:28:56.718Z,100972.38
2023-02-22T10:31:38.732Z,100966.78
2023-02-22T10:34:12.886Z,100972.47
2023-02-22T10:36:43.538Z,100964.41
2023-02-22T10:39:31.863Z,100966.72
2023-02-22T10:42:06.137Z,100958.16
2023-02-22T10:44:37.614Z,100957.03
2023-02-22T10:47:10.758Z,100953.94
2023-02-22T10:49:59.220Z,100957.03
2023-02-22T10:52:29.557Z,100952.00
2023-02-22T10:55:13.784Z,100955.75
2023-02-22T10:57:42.440Z,100944.06
2023-02-22T11:00:32.183Z,100947.81
2023-02-22T11:03:20.071Z,100945.53
2023-02-22T11:05:47.230Z,100932.91
2023-02-22T11:08:21.541Z,100942.78
2023-02-22T11:10:50.482Z,100939.69
2023-02-22T11:13:33.477Z,100932.88
2023-02-22T11:16:17.608Z,100924.28
2023-02-22T11:18:44.641Z,100921.66
2023-02-22T11:21:14.009Z,100921.47
2023-02-22T11:23:45.189Z,100924.06
2023-02-22T11:26:20.629Z,100924.84
2023-02-22T11:28:50.907Z,100923.53
2023-02-22T11:31:17.982Z,100925.63
2023-02-22T11:36:33.501Z,100923.03
2023-02-22T11:39:01.069Z,100918.66
2023-02-22T11:41:30.280Z,100909.53
2023-02-22T11:44:15.140Z,100907.25
2023-02-22T11:46:44.334Z,100902.19
2023-02-22T11:49:14.192Z,100902.19
2023-02-22T11:51:47.464Z,100895.34
2023-02-22T11:54:32.948Z,100891.78
2023-02-22T11:57:22.484Z,100879.06
2023-02-22T12:00:01.032Z,100880.81
2023-02-22T12:02:37.483Z,100870.91
2023-02-22T12:05:20.418Z,100873.47
2023-02-22T12:08:17.503Z,100869.03
2023-02-22T12:11:10.215Z,100865.44
2023-02-22T12:14:02.769Z,100862.75
2023-02-22T12:16:56.651Z,100856.69
2023-02-22T12:19:38.113Z,100857.00
2023-02-22T12:22:21.661Z,100853.88
2023-02-22T12:25:09.384Z,100850.06
2023-02-22T12:27:43.530Z,100851.00
2023-02-22T12:30:23.693Z,100852.09
2023-02-22T12:32:59.534Z,100849.78
2023-02-22T12:35:27.724Z,100845.84
2023-02-22T12:38:02.109Z,100842.09
2023-02-22T12:40:53.943Z,100838.75
2023-02-22T12:43:28.576Z,100842.81
2023-02-22T12:46:06.952Z,100844.59
2023-02-22T12:48:40.669Z,100846.84
2023-02-22T12:51:28.095Z,100847.66
2023-02-22T12:54:16.953Z,100851.72
2023-02-22T12:57:10.008Z,100845.97
2023-02-22T12:59:57.577Z,100848.22
2023-02-22T13:02:32.882Z,100854.50
2023-02-22T13:05:01.422Z,100849.75
2023-02-22T13:07:47.497Z,100859.00
2023-02-22T13:10:14.471Z,100855.22
2023-02-22T13:13:04.767Z,100856.66
2023-02-22T13:15:40.553Z,100848.31
2023-02-22T13:18:35.205Z,100843.91
2023-02-22T13:21:12.231Z,100850.38
2023-02-22T13:24:05.360Z,100850.03
2023-02-22T13:26:41.442Z,100840.06
2023-02-22T13:29:17.318Z,100842.28
2023-02-22T13:32:06.274Z,100848.31
2023-02-22T13:34:45.228Z,100843.72
2023-02-22T13:37:34.234Z,100841.63
2023-02-22T13:40:14.055Z,100835.25
2023-02-22T13:43:16.245Z,100835.88
2023-02-22T13:46:02.029Z,100834.84
2023-02-22T13:48:58.602Z,100834.50
2023-02-22T13:51:43.610Z,100831.09
2023-02-22T13:54:47.695Z,100823.47
2023-02-22T13:57:41.741Z,100820.84
2023-02-22T14:00:23.350Z,100812.03
2023-02-22T14:03:03.870Z,100812.03
2023-02-22T14:05:42.975Z,100813.66
2023-02-22T14:08:36.884Z,100804.06
2023-02-22T14:11:14.720Z,100796.41
2023-02-22T14:13:55.207Z,100803.59
2023-02-22T14:16:28.049Z,100800.84
2023-02-22T14:19:20.476Z,100805.84
2023-02-22T14:22:02.234Z,100801.25
2023-02-22T14:24:48.101Z,100803.06
2023-02-22T14:27:17.668Z,100795.44
2023-02-22T14:29:57.382Z,100797.41
2023-02-22T14:32:35.083Z,100787.81
2023-02-22T14:35:14.259Z,100798.22
2023-02-22T14:37:51.775Z,100797.56
2023-02-22T14:40:31.776Z,100793.19
2023-02-22T14:43:02.476Z,100802.00
2023-02-22T14:45:34.794Z,100791.75
2023-02-22T14:48:13.846Z,100789.75
2023-02-22T14:50:40.564Z,100797.56
2023-02-22T14:53:28.741Z,100792.38
2023-02-22T14:56:07.103Z,100799.19
2023-02-22T14:58:48.588Z,100805.22
2023-02-22T15:01:49.041Z,100813.41
2023-02-22T15:04:26.286Z,100816.00
2023-02-22T15:06:54.781Z,100803.97
2023-02-22T15:09:34.667Z,100793.56
2023-02-22T15:12:04.349Z,100807.56
2023-02-22T15:14:41.201Z,100807.75
2023-02-22T15:17:16.443Z,100811.16
2023-02-22T15:19:43.268Z,100810.69
2023-02-22T15:22:26.642Z,100808.06
2023-02-22T15:25:08.726Z,100812.66
2023-02-22T15:27:37.338Z,100818.69
2023-02-22T15:30:20.356Z,100815.44
2023-02-22T15:33:03.112Z,100812.03
2023-02-22T15:35:32.943Z,100806.22
2023-02-22T15:38:01.772Z,100802.94
2023-02-22T15:40:33.450Z,100806.56
2023-02-22T15:43:09.053Z,100807.53
2023-02-22T15:45:43.007Z,100804.94
2023-02-22T15:48:11.725Z,100797.31
2023-02-22T15:50:39.229Z,100806.91
2023-02-22T15:53:09.331Z,100806.91
2023-02-22T15:55:42.343Z,100805.31
2023-02-22T15:58:16.209Z,100803.06
2023-02-22T16:00:47.155Z,100804.03
2023-02-22T16:03:17.693Z,100802.78
2023-02-22T16:05:48.767Z,100802.97
2023-02-22T16:08:26.553Z,100808.53
2023-02-22T16:11:01.113Z,100801.91
2023-02-22T16:13:36.682Z,100805.50
2023-02-22T16:16:32.422Z,100809.44
2023-02-22T16:19:21.509Z,100817.63
2023-02-22T16:22:13.730Z,100816.34
2023-02-22T16:24:41.513Z,100813.47
2023-02-22T16:27:19.181Z,100824.25
2023-02-22T16:30:09.989Z,100818.56
2023-02-22T16:32:42.806Z,100823.16
2023-02-22T16:35:18.094Z,100814.09
2023-02-22T16:37:49.050Z,100821.25
2023-02-22T16:40:34.598Z,100822.41
2023-02-22T16:43:04.346Z,100821.78
2023-02-22T16:45:31.096Z,100820.53
2023-02-22T16:47:59.760Z,100826.91
2023-02-22T16:50:26.725Z,100825.66
2023-02-22T16:52:58.574Z,100826.81
2023-02-22T16:55:26.250Z,100826.31
2023-02-22T16:58:01.137Z,100831.88
2023-02-22T17:00:34.692Z,100829.66
2023-02-22T17:03:06.015Z,100832.59
2023-02-22T17:05:36.385Z,100830.97
2023-02-22T17:08:05.282Z,100838.31
2023-02-22T17:10:32.712Z,100834.25
2023-02-22T17:13:12.739Z,100838.84
2023-02-22T17:15:47.145Z,100842.59
2023-02-22T17:18:16.832Z,100842.16
2023-02-22T17:20:45.148Z,100832.09
2023-02-22T17:23:12.444Z,100837.47
2023-02-22T17:25:56.197Z,100834.22
2023-02-22T17:28:24.784Z,100838.63
2023-02-22T17:30:53.699Z,100840.59
2023-02-22T17:33:27.885Z,100843.34
2023-02-22T17:35:57.900Z,100847.72
2023-02-22T17:38:27.119Z,100850.69
2023-02-22T17:40:54.953Z,100846.47
2023-02-22T17:43:25.067Z,100850.06
2023-02-22T17:45:51.964Z,100859.81
2023-02-22T17:48:19.410Z,100856.41
2023-02-22T17:50:48.137Z,100859.97
2023-02-22T17:53:15.694Z,100863.56
2023-02-22T17:55:43.490Z,100866.31
2023-02-22T17:58:14.827Z,100870.88
2023-02-22T18:00:47.546Z,100863.28
2023-02-22T18:03:21.173Z,100876.25
2023-02-22T18:05:50.294Z,100879.00
2023-02-22T18:08:17.630Z,100880.19
2023-02-22T18:10:46.254Z,100882.28
2023-02-22T18:13:18.765Z,100881.81
2023-02-22T18:15:47.029Z,100881.19
2023-02-22T18:18:14.924Z,100878.75
2023-02-22T18:20:47.269Z,100883.47
2023-02-22T18:23:16.426Z,100889.19
2023-02-22T18:26:07.629Z,100892.28
2023-02-22T18:28:36.907Z,100892.13
2023-02-22T18:31:09.040Z,100890.72
2023-02-22T18:33:36.327Z,100888.44
2023-02-22T18:36:06.313Z,100891.53
2023-02-22T18:38:35.005Z,100896.09
2023-02-22T18:41:05.239Z,100891.41
2023-02-22T18:43:34.232Z,100881.53
2023-02-22T18:46:16.359Z,100895.66
2023-02-22T18:48:44.633Z,100895.66
2023-02-22T18:51:13.993Z,100894.00
2023-02-22T18:53:47.137Z,100899.38
2023-02-22T18:56:20.070Z,100896.16
2023-02-22T18:58:48.291Z,100900.72
2023-02-22T19:01:17.807Z,100892.44
2023-02-22T19:03:47.262Z,100890.00
2023-02-22T19:06:15.747Z,100895.19
2023-02-22T19:08:44.001Z,100892.78
2023-02-22T19:11:18.332Z,100903.34
2023-02-22T19:13:46.872Z,100900.06
2023-02-22T19:16:14.870Z,100899.59
2023-02-22T19:18:44.205Z,100901.56
2023-02-22T19:21:14.052Z,100907.88
2023-02-22T19:23:48.578Z,100902.22
2023-02-22T19:26:19.119Z,100901.25
2023-02-22T19:28:47.405Z,100904.16
2023-02-22T19:31:31.594Z,100902.06
2023-02-22T19:34:03.859Z,100899.63
2023-02-22T19:36:31.703Z,100898.19
2023-02-22T19:39:02.151Z,100904.34
2023-02-22T19:41:29.862Z,100903.53
2023-02-22T19:43:57.306Z,100896.38
2023-02-22T19:46:28.273Z,100900.28
2023-02-22T19:48:55.507Z,100907.59
2023-02-22T19:51:25.630Z,100909.56
2023-02-22T19:53:53.416Z,100910.03
2023-02-22T19:56:27.129Z,100914.56
2023-02-22T19:58:56.988Z,100909.53
2023-02-22T20:01:26.477Z,100920.09
2023-02-22T20:03:57.638Z,100917.00
2023-02-22T20:06:28.333Z,100915.06
2023-02-22T20:08:56.888Z,100920.41
2023-02-22T20:11:24.992Z,100921.38
2023-02-22T20:13:52.000Z,100914.25
2023-02-22T20:16:18.852Z,100923.78
2023-02-22T20:18:48.486Z,100920.72
2023-02-22T20:21:20.496Z,100921.22
2023-02-22T20:23:47.874Z,100930.75
2023-02-22T20:26:24.590Z,100929.94
2023-02-22T20:28:52.124Z,100925.06
2023-02-22T20:31:20.339Z,100922.31
2023-02-22T20:33:49.267Z,100937.06
2023-02-22T20:36:18.610Z,100940.75
2023-02-22T20:38:45.916Z,100938.00
2023-02-22T20:41:25.642Z,100931.66
2023-02-22T20:43:54.175Z,100931.50
2023-02-22T20:46:26.548Z,100933.25
2023-02-22T20:49:00.067Z,100938.44
2023-02-22T20:51:28.633Z,100942.97
2023-02-22T20:53:59.901Z,100940.88
2023-02-22T20:56:29.279Z,100942.50
2023-02-22T20:58:59.501Z,100949.28
2023-02-22T21:01:26.400Z,100954.34
2023-02-22T21:03:53.584Z,100954.03
2023-02-22T21:06:21.948Z,100951.91
2023-02-22T21:08:54.800Z,100953.84
2023-02-22T21:11:23.072Z,100949.31
2023-02-22T21:13:51.409Z,100945.44
2023-02-22T21:16:30.007Z,100949.97
2023-02-22T21:18:59.144Z,100955.47
2023-02-22T21:21:27.371Z,100949.28
2023-02-22T21:23:57.430Z,100951.75
2023-02-22T21:26:29.817Z,100952.88
2023-02-22T21:29:00.700Z,100950.44
2023-02-22T21:31:28.379Z,100953.03
2023-02-22T21:33:57.328Z,100956.59
2023-02-22T21:36:25.651Z,100956.88
2023-02-22T21:38:55.690Z,100954.47
2023-02-22T21:41:28.053Z,100951.72
2023-02-22T21:43:56.944Z,100965.31
2023-02-22T21:46:25.108Z,100953.19
2023-02-22T21:48:52.184Z,100954.16
2023-02-22T21:51:22.033Z,100957.88
2023-02-22T21:53:53.846Z,100952.81
2023-02-22T21:56:29.356Z,100959.66
2023-02-22T21:59:17.398Z,100960.47
2023-02-22T22:01:50.311Z,100954.47
2023-02-22T22:04:23.704Z,100962.41
2023-02-22T22:06:52.485Z,100960.78
2023-02-22T22:09:21.971Z,100954.78
2023-02-22T22:12:05.507Z,100953.97
2023-02-22T22:14:34.167Z,100955.75
2023-02-22T22:17:05.677Z,100958.34
2023-02-22T22:19:39.118Z,100957.38
2023-02-22T22:22:06.138Z,100952.34
2023-02-22T22:24:34.690Z,100951.53
2023-02-22T22:27:03.877Z,100954.13
2023-02-22T22:29:34.307Z,100953.97
2023-02-22T22:32:03.340Z,100954.78
2023-02-22T22:34:30.312Z,100951.53
2023-02-22T22:36:58.191Z,100949.25
2023-02-22T22:39:27.056Z,100946.81
2023-02-22T22:41:53.934Z,100952.81
2023-02-22T22:44:22.509Z,100952.00
2023-02-22T22:46:50.134Z,100951.34
2023-02-22T22:49:17.042Z,100951.19
2023-02-22T22:51:47.554Z,100961.41
2023-02-22T22:54:14.495Z,100958.66
2023-02-22T22:56:41.397Z,100950.72
2023-02-22T22:59:10.616Z,100961.06
2023-02-22T23:01:40.692Z,100961.91
2023-02-22T23:04:11.231Z,100963.00
2023-02-22T23:06:46.140Z,100965.78
2023-02-22T23:09:18.812Z,100962.19
2023-02-22T23:11:51.093Z,100964.66
2023-02-22T23:14:20.837Z,100966.25
2023-02-22T23:16:48.992Z,100962.88
2023-02-22T23:19:16.390Z,100960.28
2023-02-22T23:21:44.096Z,100965.47
2023-02-22T23:24:15.487Z,100963.19
2023-02-22T23:26:43.305Z,100973.72
2023-02-22T23:29:11.189Z,100966.25
2023-02-22T23:31:39.818Z,100972.25
2023-02-22T23:34:13.070Z,100964.28
2023-02-22T23:37:00.893Z,100966.06
2023-02-22T23:39:28.048Z,100969.59
2023-02-22T23:41:59.351Z,100976.56
2023-02-22T23:44:27.314Z,100973.97
2023-02-22T23:46:57.236Z,100968.13
2023-02-22T23:49:27.507Z,100975.09
2023-02-22T23:51:54.333Z,100982.06
2023-02-22T23:54:24.438Z,100976.72
2023-02-22T23:56:57.053Z,100974.94
2023-02-22T23:59:27.239Z,100984.50
